Latest Weather Observations for Newcastle Nobbys

IDN60801

Issued at 4:02 pm EST Friday 29 May 2015 (issued every 30 minutes, with the page automatically refreshed every 10 minutes)

About weather observations | Map of weather stations | Latest weather observations for NSW | Other Formats
Station Details ID: 061055 Name: NEWCASTLE NOBBYS SIGNAL STATION AWS Lat: -32.92 Lon: 151.80 Height: 33.0 m
Data from the previous 72 hours. | See also: Recent months at Newcastle Nobbys
Date/Time
EST
Temp
°C
App
Temp
°C
Dew
Point
Rel
Hum
%
Delta-T
°C
Wind Press
QNH
hPa
Press
MSL
hPa
Rain
since 9 am
mm
Dir
 
Spd
km/h
Gust
km/h
Spd
kts
Gust
kts
29/04:00pm 18.8 16.9 14.3 75 2.6 NW 17 20 9 11 - - 0.4
29/03:30pm 18.8 16.4 14.3 75 2.6 NW 20 24 11 13 - - 0.4
29/03:00pm 18.9 16.7 14.4 75 2.6 NW 19 24 10 13 - - 0.4
29/02:30pm 18.6 16.9 14.7 78 2.3 NW 17 24 9 13 - - 0.4
29/02:00pm 18.2 15.8 14.5 79 2.1 NW 20 28 11 15 - - 0.4
29/01:30pm 17.9 14.8 14.4 80 2.0 NW 24 32 13 17 - - 0.4
29/01:00pm 17.6 15.3 14.7 83 1.7 NW 20 28 11 15 - - 0.4
29/12:30pm 17.4 14.4 14.7 84 1.6 NW 24 28 13 15 - - 0.4
29/12:00pm 17.3 14.2 14.6 84 1.6 NW 24 32 13 17 - - 0.4
29/11:30am 17.3 15.6 14.6 84 1.6 NW 17 20 9 11 - - 0.4
29/11:00am 17.3 14.5 14.2 82 1.8 NW 22 32 12 17 - - 0.2
29/10:30am 17.5 13.9 14.2 81 1.9 NW 26 33 14 18 - - 0.0
29/10:00am 17.3 14.8 14.2 82 1.8 NW 20 26 11 14 - - 0.0
29/09:30am 17.1 14.7 13.8 81 1.9 NW 19 22 10 12 - - 0.0
29/09:00am 17.1 14.7 13.8 81 1.9 NW 19 24 10 13 - - 0.0
29/08:30am 16.9 15.1 13.4 80 2.0 NW 15 20 8 11 - - 0.0
29/08:00am 16.9 14.7 13.4 80 2.0 WNW 17 24 9 13 - - 0.0
29/07:30am 16.9 14.2 13.0 78 2.2 NW 19 24 10 13 - - 0.0
29/07:00am 16.4 13.5 12.8 79 2.0 NW 20 26 11 14 - - 0.0
29/06:30am 16.2 13.2 12.6 79 2.0 NW 20 28 11 15 - - 0.0
29/06:00am 15.8 12.7 12.2 79 2.0 NW 20 26 11 14 - - 0.0
29/05:30am 16.5 14.0 12.3 76 2.3 NNW 17 22 9 12 - - 0.0
29/05:00am 17.1 14.2 12.2 73 2.7 NNW 19 24 10 13 - - 0.0
29/04:30am 17.0 15.1 11.9 72 2.8 NNW 13 17 7 9 - - 0.0
29/04:00am 16.6 15.3 12.4 76 2.3 NNW 11 15 6 8 - - 0.0
29/03:30am 15.7 14.4 12.5 81 1.8 NW 11 15 6 8 - - 0.0
29/03:00am 15.2 14.3 12.5 84 1.5 NNW 9 13 5 7 - - 0.0
29/02:30am 15.3 13.0 11.9 80 1.8 N 15 20 8 11 - - 0.0
29/02:00am 15.4 13.7 12.5 83 1.6 NW 13 15 7 8 - - 0.0
29/01:30am 15.8 14.8 12.4 80 1.9 NW 9 13 5 7 - - 0.0
29/01:00am 15.9 14.2 12.5 80 1.9 NNW 13 15 7 8 - - 0.0
29/12:30am 16.1 14.5 12.7 80 1.9 N 13 17 7 9 - - 0.0
29/12:00am 16.1 15.7 13.0 82 1.7 NNW 7 9 4 5 - - 0.0
 
Date/Time
EST
Temp
°C
App
Temp
°C
Dew
Point
Rel
Hum
%
Delta-T
°C
Wind Press
QNH
hPa
Press
MSL
hPa
Rain
since 9 am
mm
Dir
 
Spd
km/h
Gust
km/h
Spd
kts
Gust
kts
28/11:30pm 15.9 16.0 12.6 81 1.8 WNW 4 7 2 4 - - 0.0
28/11:00pm 16.7 15.5 12.8 78 2.2 NNW 11 13 6 7 - - 0.0
28/10:30pm 16.8 15.6 12.9 78 2.2 NW 11 13 6 7 - - 0.0
28/10:00pm 16.7 15.9 13.0 79 2.1 NW 9 11 5 6 - - 0.0
28/09:30pm 16.9 16.4 12.8 77 2.3 NW 7 9 4 5 - - 0.0
28/09:00pm 17.5 15.6 13.0 75 2.5 NNW 15 17 8 9 - - 0.0
28/08:30pm 17.7 16.7 13.4 76 2.4 NNW 11 15 6 8 - - 0.0
28/08:00pm 17.5 16.6 12.6 73 2.7 NW 9 13 5 7 - - 0.0
28/07:30pm 17.8 17.4 12.9 73 2.7 NNW 7 11 4 6 - - 0.0
28/07:00pm 18.4 16.5 13.1 71 3.0 NNW 15 19 8 10 - - 0.0
28/06:30pm 18.6 16.6 12.8 69 3.3 N 15 20 8 11 - - 0.0
28/06:00pm 18.8 17.2 12.8 68 3.4 NW 13 19 7 10 - - 0.0
28/05:30pm 19.3 16.9 12.6 65 3.8 NW 17 24 9 13 - - 0.0
28/05:00pm 19.8 17.8 12.8 64 4.0 NNW 15 17 8 9 - - 0.0
28/04:30pm 20.2 17.3 12.2 60 4.5 NNW 19 22 10 12 - - 0.0
28/04:00pm 20.4 17.2 11.9 58 4.7 NW 20 28 11 15 - - 0.0
28/03:30pm 21.2 18.2 12.1 56 5.1 NW 19 26 10 14 - - 0.0
28/03:00pm 21.3 18.8 12.4 57 5.0 NNW 17 22 9 12 - - 0.0
28/02:30pm 21.8 18.8 11.8 53 5.6 NW 19 26 10 14 - - 0.0
28/02:00pm 20.8 17.7 11.7 56 5.1 NW 19 24 10 13 - - 0.0
28/01:30pm 22.0 19.1 11.1 50 6.0 NW 17 24 9 13 - - 0.0
28/01:00pm 21.3 17.9 10.5 50 5.9 NW 19 24 10 13 - - 0.0
28/12:30pm 21.0 16.8 9.6 48 6.1 NNW 22 28 12 15 - - 0.0
28/12:00pm 20.5 17.3 10.0 51 5.7 NW 17 22 9 12 - - 0.0
28/11:30am 20.2 17.7 11.1 56 5.0 NW 15 20 8 11 - - 0.0
28/11:00am 19.2 17.5 11.3 60 4.3 NW 11 17 6 9 - - 0.0
28/10:30am 18.5 15.6 11.1 62 4.0 NW 17 20 9 11 - - 0.0
28/10:00am 17.4 13.9 10.8 65 3.5 NW 20 24 11 13 - - 0.0
28/09:30am 16.4 12.5 10.9 70 2.9 NW 22 26 12 14 - - 0.0
28/09:00am 15.7 12.7 10.7 72 2.7 NW 17 22 9 12 - - 0.0
28/08:30am 14.8 11.4 10.4 75 2.3 NW 19 20 10 11 - - 0.0
28/08:00am 14.3 11.3 10.5 78 2.0 NW 17 20 9 11 - - 0.0
28/07:30am 13.7 10.7 10.7 82 1.6 NW 17 20 9 11 - - 0.0
28/07:00am 12.9 9.9 10.6 86 1.2 NW 17 20 9 11 - - 0.0
28/06:30am 13.0 10.3 10.4 84 1.3 NW 15 19 8 10 - - 0.0
28/06:00am 13.2 11.0 10.7 85 1.3 NW 13 15 7 8 - - 0.0
28/05:30am 13.5 11.7 10.9 84 1.4 NW 11 13 6 7 - - 0.0
28/05:00am 13.7 11.5 10.9 83 1.5 NW 13 15 7 8 - - 0.0
28/04:30am 13.7 11.9 10.9 83 1.5 WNW 11 13 6 7 - - 0.0
28/04:00am 13.7 11.9 10.9 83 1.5 WNW 11 13 6 7 - - 0.0
28/03:30am 13.6 11.8 10.8 83 1.5 NW 11 13 6 7 - - 0.0
28/03:00am 13.7 12.3 10.9 83 1.5 NW 9 9 5 5 - - 0.0
28/02:30am 13.7 11.9 10.9 83 1.5 NW 11 13 6 7 - - 0.0
28/02:00am 13.9 12.5 10.9 82 1.6 NW 9 11 5 6 - - 0.0
28/01:30am 13.9 11.7 10.9 82 1.6 NW 13 15 7 8 - - 0.0
28/01:00am 14.0 13.1 11.2 83 1.5 NW 7 9 4 5 - - 0.0
28/12:30am 14.1 12.6 10.7 80 1.8 NW 9 9 5 5 - - 0.0
28/12:00am 14.3 12.6 11.1 81 1.7 NW 11 13 6 7 - - 0.0
 
Date/Time
EST
Temp
°C
App
Temp
°C
Dew
Point
Rel
Hum
%
Delta-T
°C
Wind Press
QNH
hPa
Press
MSL
hPa
Rain
since 9 am
mm
Dir
 
Spd
km/h
Gust
km/h
Spd
kts
Gust
kts
27/11:30pm 14.3 12.4 10.5 78 2.0 NW 11 13 6 7 - - 0.0
27/11:00pm 14.5 12.7 10.7 78 2.0 NNW 11 13 6 7 - - 0.0
27/10:30pm 14.7 13.3 10.9 78 2.0 NNW 9 13 5 7 - - 0.0
27/10:00pm 15.0 13.4 11.4 79 1.9 NNW 11 13 6 7 - - 0.0
27/09:30pm 14.8 13.5 11.2 79 1.9 NNW 9 11 5 6 - - 0.0
27/09:00pm 15.1 13.6 10.5 74 2.4 NW 9 9 5 5 - - 0.0
27/08:30pm 15.2 13.7 10.6 74 2.4 WNW 9 11 5 6 - - 0.0
27/08:00pm 15.3 13.8 10.5 73 2.5 WNW 9 13 5 7 - - 0.0
27/07:30pm 15.4 13.5 10.6 73 2.5 WNW 11 13 6 7 - - 0.0
27/07:00pm 15.8 14.2 10.3 70 2.9 NW 9 11 5 6 - - 0.0
27/06:30pm 15.8 14.5 9.9 68 3.1 WNW 7 9 4 5 - - 0.0
27/06:00pm 15.9 14.2 9.8 67 3.2 NW 9 13 5 7 - - 0.0
27/05:30pm 16.2 14.8 9.4 64 3.5 WNW 7 11 4 6 - - 0.0
27/05:00pm 16.6 14.4 9.5 63 3.7 WNW 11 15 6 8 - - 0.0
27/04:30pm 17.1 15.1 10.0 63 3.8 NW 11 15 6 8 - - 0.0
27/04:00pm 17.8 14.5 9.7 59 4.3 WNW 17 24 9 13 - - 0.0
27/03:30pm 18.4 14.8 10.0 58 4.5 NW 19 22 10 12 - - 0.0
27/03:00pm 18.5 15.3 9.8 57 4.6 NW 17 24 9 13 - - 0.0
27/02:30pm 18.7 15.5 9.8 56 4.7 NW 17 20 9 11 - - 0.0
27/02:00pm 18.3 15.7 10.7 61 4.1 NW 15 22 8 12 - - 0.0
27/01:30pm 18.4 15.1 10.8 61 4.1 NW 19 24 10 13 - - 0.0
27/01:00pm 17.9 14.0 10.8 63 3.8 NW 22 28 12 15 - - 0.0
27/12:30pm 18.3 14.7 10.7 61 4.1 NW 20 30 11 16 - - 0.0
27/12:00pm 19.5 16.3 11.3 59 4.5 NW 19 24 10 13 - - 0.0
27/11:30am 19.0 16.5 11.1 60 4.3 WNW 15 19 8 10 - - 0.0
27/11:00am 18.1 16.1 11.4 65 3.7 NW 13 17 7 9 - - 0.0
27/10:30am 16.7 14.1 10.8 68 3.2 NW 15 17 8 9 - - 0.0
27/10:00am 15.4 12.8 10.6 73 2.5 NW 15 19 8 10 - - 0.0
27/09:30am 15.1 12.8 10.5 74 2.4 WNW 13 20 7 11 - - 0.0
27/09:00am 14.3 13.2 10.7 79 1.9 NW 7 11 4 6 - - 0.0
27/08:30am 13.3 10.7 10.7 84 1.4 NW 15 19 8 10 - - 0.0
27/08:00am 12.4 8.7 10.3 87 1.1 NW 20 24 11 13 - - 0.0
27/07:30am 11.9 9.1 10.1 89 0.9 NW 15 19 8 10 - - 0.0
27/07:00am 11.9 9.6 10.5 91 0.7 NW 13 17 7 9 - - 0.0
27/06:30am 11.9 10.0 10.5 91 0.7 NW 11 13 6 7 - - 0.0
27/06:00am 11.9 9.6 10.5 91 0.7 NW 13 15 7 8 - - 0.0
27/05:30am 12.0 10.7 10.1 88 1.0 NW 7 11 4 6 - - 0.0
27/05:00am 12.2 10.9 10.1 87 1.1 WNW 7 11 4 6 - - 0.0
27/04:30am 12.6 11.7 10.5 87 1.1 NW 6 7 3 4 - - 0.0
27/04:00am 12.9 11.8 10.8 87 1.1 NW 7 9 4 5 - - 0.0
27/03:30am 12.7 11.2 10.6 87 1.1 W 9 9 5 5 - - 0.0
27/03:00am 12.5 11.0 10.4 87 1.1 NW 9 11 5 6 - - 0.0
27/02:30am 12.5 11.0 10.4 87 1.1 WNW 9 13 5 7 - - 0.0
27/02:00am 12.9 10.7 10.8 87 1.1 NW 13 15 7 8 - - 0.0
27/01:30am 12.8 11.0 10.7 87 1.1 WNW 11 13 6 7 - - 0.0
27/01:00am 13.3 10.4 11.0 86 1.2 NNW 17 22 9 12 - - 0.0
27/12:30am 13.3 10.8 11.0 86 1.2 NW 15 19 8 10 - - 0.0
27/12:00am 13.2 11.7 10.7 85 1.3 W 9 11 5 6 - - 0.0
 
Date/Time
EST
Temp
°C
App
Temp
°C
Dew
Point
Rel
Hum
%
Delta-T
°C
Wind Press
QNH
hPa
Press
MSL
hPa
Rain
since 9 am
mm
Dir
 
Spd
km/h
Gust
km/h
Spd
kts
Gust
kts
26/11:30pm 13.3 10.3 10.7 84 1.4 NW 17 20 9 11 - - 0.0
26/11:00pm 14.2 12.8 11.0 81 1.7 NW 9 17 5 9 - - 0.0
26/10:30pm 14.0 13.1 10.8 81 1.7 NW 6 9 3 5 - - 0.0
26/10:00pm 14.2 13.9 11.4 83 1.5 WNW 4 6 2 3 - - 0.0
26/09:30pm 14.7 13.2 10.7 77 2.1 NW 9 11 5 6 - - 0.0
26/09:00pm 15.2 14.3 10.8 75 2.3 W 6 7 3 4 - - 0.0
26/08:30pm 15.4 14.4 11.0 75 2.3 W 7 9 4 5 - - 0.0
26/08:00pm 15.7 14.7 10.9 73 2.6 W 7 9 4 5 - - 0.0
26/07:30pm 15.5 14.7 10.9 74 2.4 WNW 6 7 3 4 - - 0.0
26/07:00pm 15.8 14.9 10.8 72 2.7 WNW 6 7 3 4 - - 0.0
26/06:30pm 16.0 14.9 10.7 71 2.8 WNW 7 9 4 5 - - 0.0
26/06:00pm 16.9 15.9 10.3 65 3.5 WSW 6 7 3 4 - - 0.0
26/05:30pm 17.1 15.6 9.3 60 4.1 SSW 7 9 4 5 - - 0.0
26/05:00pm 17.1 15.3 9.3 60 4.1 S 9 13 5 7 - - 0.0
26/04:30pm 17.1 15.7 9.5 61 4.0 S 7 11 4 6 - - 0.0

Other Formats:

Comma delimited format used in spreadsheet applications
http://www.bom.gov.au/fwo/IDN60801/IDN60801.94774.axf

JavaScript Object Notation format (JSON) in row-major order
http://www.bom.gov.au/fwo/IDN60801/IDN60801.94774.json